Time;durP1;ratioP1;P1;durP2;ratioP2;P2;SDS_P1;SDS_P2;PMS_P1;PMS_P2;Temp;Humidity;BMP_temperature;BMP_pressure;BME280_temperature;BME280_humidity;BME280_pressure;Samples;Min_cycle;Max_cycle;Signal;HPM_P1;HPM_P2
2022/09/13 00:01:39;;;;;;;;;;;16.80;99.90;;;;;;5075049;28;19925;-62
2022/09/13 00:04:05;;;;;;;;;;;16.90;99.90;;;;;;5055884;28;19920;-62
2022/09/13 00:06:30;;;;;;;;;;;17.00;99.90;;;;;;5075109;28;20003;-62
2022/09/13 00:08:57;;;;;;;;;;;17.00;99.90;;;;;;5074990;28;19999;-62
2022/09/13 00:11:23;;;;;;;;;;;17.00;99.90;;;;;;5074494;28;19916;-62
2022/09/13 00:13:49;;;;;;;;;;;17.00;99.90;;;;;;5074509;28;20401;-61
2022/09/13 00:16:16;;;;;;;;;;;17.10;99.90;;;;;;5074654;28;19921;-62
2022/09/13 00:18:42;;;;;;;;;;;17.10;99.90;;;;;;5089793;28;19920;-62
2022/09/13 00:21:10;;;;;;;;;;;17.10;99.90;;;;;;5056173;28;20274;-62
2022/09/13 00:23:36;;;;;;;;;;;17.10;99.90;;;;;;5073509;28;19968;-62
2022/09/13 00:26:06;;;;;;;;;;;17.10;99.90;;;;;;5073937;28;19998;-62
2022/09/13 00:28:32;;;;;;;;;;;17.10;99.90;;;;;;5074604;28;19966;-62
2022/09/13 00:30:59;;;;;;;;;;;17.10;99.90;;;;;;5073755;28;19921;-62
2022/09/13 00:33:24;;;;;;;;;;;17.10;99.90;;;;;;5073829;28;20275;-62
2022/09/13 00:35:50;;;;;;;;;;;17.10;99.90;;;;;;5073797;28;19928;-62
2022/09/13 00:38:16;;;;;;;;;;;17.00;99.90;;;;;;5072381;28;20319;-62
2022/09/13 00:40:41;;;;;;;;;;;17.00;99.90;;;;;;5073876;28;20327;-62
2022/09/13 00:43:15;;;;;;;;;;;16.90;99.90;;;;;;5074293;28;20397;-62
2022/09/13 00:45:40;;;;;;;;;;;16.90;99.90;;;;;;5073490;28;19920;-62
2022/09/13 00:48:07;;;;;;;;;;;16.80;99.90;;;;;;5074070;28;20007;-62
2022/09/13 00:50:36;;;;;;;;;;;16.80;99.90;;;;;;5074230;28;19966;-62
2022/09/13 00:53:04;;;;;;;;;;;16.80;99.90;;;;;;5073280;28;20378;-62
2022/09/13 00:55:30;;;;;;;;;;;16.70;99.90;;;;;;5071022;28;20329;-62
2022/09/13 00:57:58;;;;;;;;;;;16.70;99.90;;;;;;5055830;28;19924;-61
2022/09/13 01:00:24;;;;;;;;;;;16.70;99.90;;;;;;5073023;28;20026;-61
2022/09/13 01:02:52;;;;;;;;;;;16.70;99.90;;;;;;5072983;28;19963;-61
2022/09/13 01:05:20;;;;;;;;;;;16.70;99.90;;;;;;5073724;28;19982;-61
2022/09/13 01:07:46;;;;;;;;;;;16.70;99.90;;;;;;5073033;28;19920;-60
2022/09/13 01:10:12;;;;;;;;;;;16.70;99.90;;;;;;5072421;28;20408;-61
2022/09/13 01:12:39;;;;;;;;;;;16.70;99.90;;;;;;5074058;28;19916;-61
2022/09/13 01:15:05;;;;;;;;;;;16.70;99.90;;;;;;5072384;28;19927;-61
2022/09/13 01:17:32;;;;;;;;;;;16.70;99.90;;;;;;5072525;28;19920;-61
2022/09/13 01:19:59;;;;;;;;;;;16.70;99.90;;;;;;5079820;28;19928;-60
2022/09/13 01:22:24;;;;;;;;;;;16.70;99.90;;;;;;5072810;28;19920;-60
2022/09/13 01:24:55;;;;;;;;;;;16.70;99.90;;;;;;5090764;28;19923;-61
2022/09/13 01:27:37;;;;;;;;;;;16.70;99.90;;;;;;5094345;28;19920;-61
2022/09/13 01:30:08;;;;;;;;;;;16.60;99.90;;;;;;5093710;28;19926;-61
2022/09/13 01:32:47;;;;;;;;;;;16.60;99.90;;;;;;5093418;28;19920;-61
2022/09/13 01:35:23;;;;;;;;;;;16.60;99.90;;;;;;5092599;28;20409;-61
2022/09/13 01:37:51;;;;;;;;;;;16.60;99.90;;;;;;5108976;28;20018;-61
2022/09/13 01:40:35;;;;;;;;;;;16.60;99.90;;;;;;5093689;28;19920;-61
2022/09/13 01:43:08;;;;;;;;;;;16.60;99.90;;;;;;5081799;28;20370;-61
2022/09/13 01:45:35;;;;;;;;;;;16.60;99.90;;;;;;5073009;28;19935;-61
2022/09/13 01:48:13;;;;;;;;;;;16.60;99.90;;;;;;5073344;28;19920;-61
2022/09/13 01:50:41;;;;;;;;;;;16.60;99.90;;;;;;5065554;28;19919;-61
2022/09/13 01:53:17;;;;;;;;;;;16.60;99.90;;;;;;5093451;28;19920;-61
2022/09/13 01:55:47;;;;;;;;;;;16.60;99.90;;;;;;5074420;28;19959;-61
2022/09/13 01:58:27;;;;;;;;;;;16.60;99.90;;;;;;5091767;28;19965;-61
2022/09/13 02:01:17;;;;;;;;;;;16.60;99.90;;;;;;5055115;28;19928;-61
2022/09/13 02:03:47;;;;;;;;;;;16.60;99.90;;;;;;5054285;28;20382;-61
2022/09/13 02:06:17;;;;;;;;;;;16.60;99.90;;;;;;5073036;28;19928;-61
2022/09/13 02:08:45;;;;;;;;;;;16.60;99.90;;;;;;5069423;28;20021;-61
2022/09/13 02:11:13;;;;;;;;;;;16.70;99.90;;;;;;5092758;28;19927;-61
2022/09/13 02:13:41;;;;;;;;;;;16.70;99.90;;;;;;5092871;28;19962;-61
2022/09/13 02:16:10;;;;;;;;;;;16.70;99.90;;;;;;5090076;28;19924;-61
2022/09/13 02:18:40;;;;;;;;;;;16.70;99.90;;;;;;5072348;28;20076;-61
2022/09/13 02:21:09;;;;;;;;;;;16.70;99.90;;;;;;5072732;28;19921;-61
2022/09/13 02:23:38;;;;;;;;;;;16.70;99.90;;;;;;5054638;28;19921;-61
2022/09/13 02:26:05;;;;;;;;;;;16.80;99.90;;;;;;5053955;28;19917;-61
2022/09/13 02:28:34;;;;;;;;;;;16.80;99.90;;;;;;5072258;28;19967;-61
2022/09/13 02:31:00;;;;;;;;;;;16.80;99.90;;;;;;5072111;28;19968;-61
2022/09/13 02:33:29;;;;;;;;;;;16.80;99.90;;;;;;5072717;28;19924;-61
2022/09/13 02:36:02;;;;;;;;;;;16.80;99.90;;;;;;5072203;28;20340;-61
2022/09/13 02:38:30;;;;;;;;;;;16.80;99.90;;;;;;5054024;28;19916;-61
2022/09/13 02:41:09;;;;;;;;;;;16.80;99.90;;;;;;5072863;28;19926;-61
2022/09/13 02:43:38;;;;;;;;;;;16.90;99.90;;;;;;5054516;28;19921;-61
2022/09/13 02:46:09;;;;;;;;;;;16.90;99.90;;;;;;5072149;28;20332;-61
2022/09/13 02:48:37;;;;;;;;;;;16.90;99.90;;;;;;5072999;28;19920;-61
2022/09/13 02:51:03;;;;;;;;;;;16.90;99.90;;;;;;5067718;28;19965;-61
2022/09/13 02:53:40;;;;;;;;;;;16.90;99.90;;;;;;5064545;28;19924;-61
2022/09/13 02:56:17;;;;;;;;;;;17.00;99.90;;;;;;5072815;28;19920;-61
2022/09/13 02:58:45;;;;;;;;;;;16.90;99.90;;;;;;5072427;28;19999;-61
2022/09/13 03:01:11;;;;;;;;;;;17.00;99.90;;;;;;5056755;28;19920;-61
2022/09/13 03:03:37;;;;;;;;;;;17.00;99.90;;;;;;5072497;28;20042;-61
2022/09/13 03:06:02;;;;;;;;;;;17.00;99.90;;;;;;5075325;28;19923;-60
2022/09/13 03:08:29;;;;;;;;;;;17.00;99.90;;;;;;5058281;28;20301;-61
2022/09/13 03:10:57;;;;;;;;;;;17.00;99.90;;;;;;5074381;28;19923;-61
2022/09/13 03:13:31;;;;;;;;;;;17.10;99.90;;;;;;5055269;28;19928;-61
2022/09/13 03:15:56;;;;;;;;;;;17.10;99.90;;;;;;5056211;28;19928;-61
2022/09/13 03:18:32;;;;;;;;;;;17.20;99.90;;;;;;5043310;28;19928;-61
2022/09/13 03:20:59;;;;;;;;;;;17.20;99.90;;;;;;5074931;28;19921;-61
2022/09/13 03:23:41;;;;;;;;;;;17.20;99.90;;;;;;5075758;28;20263;-61
2022/09/13 03:26:24;;;;;;;;;;;17.30;99.90;;;;;;5041152;28;19959;-61
2022/09/13 03:29:01;;;;;;;;;;;17.40;99.90;;;;;;5074536;28;19924;-61
2022/09/13 03:31:37;;;;;;;;;;;17.50;99.90;;;;;;5075788;28;19973;-61
2022/09/13 03:34:19;;;;;;;;;;;17.40;99.90;;;;;;5104984;28;19920;-61
2022/09/13 03:36:49;;;;;;;;;;;17.40;99.90;;;;;;5075257;28;20003;-61
2022/09/13 03:39:22;;;;;;;;;;;17.30;99.90;;;;;;5075448;28;19920;-61
2022/09/13 03:41:51;;;;;;;;;;;17.20;99.90;;;;;;5074745;28;19921;-61
2022/09/13 03:44:18;;;;;;;;;;;17.20;99.90;;;;;;5074921;28;19981;-61
2022/09/13 03:46:46;;;;;;;;;;;17.10;99.90;;;;;;5055697;28;19921;-61
2022/09/13 03:49:14;;;;;;;;;;;17.10;99.90;;;;;;5054505;28;20359;-61
2022/09/13 03:51:40;;;;;;;;;;;17.00;99.90;;;;;;5055567;28;19925;-61
2022/09/13 03:54:08;;;;;;;;;;;17.00;99.90;;;;;;5062177;28;19954;-60
2022/09/13 03:56:34;;;;;;;;;;;16.90;99.90;;;;;;5074359;28;19971;-61
2022/09/13 03:58:59;;;;;;;;;;;16.90;99.90;;;;;;5075424;28;19971;-61
2022/09/13 04:01:26;;;;;;;;;;;16.90;99.90;;;;;;5074694;28;19966;-61
2022/09/13 04:03:51;;;;;;;;;;;16.90;99.90;;;;;;5055208;28;20388;-61
2022/09/13 04:06:17;;;;;;;;;;;16.90;99.90;;;;;;5056464;28;19921;-61
2022/09/13 04:08:43;;;;;;;;;;;16.80;99.90;;;;;;5074744;28;19928;-61
2022/09/13 04:11:09;;;;;;;;;;;16.80;99.90;;;;;;5073041;28;20275;-61
2022/09/13 04:13:36;;;;;;;;;;;16.80;99.90;;;;;;5073783;28;20011;-61
2022/09/13 04:16:03;;;;;;;;;;;16.80;99.90;;;;;;5074225;28;19973;-61
2022/09/13 04:18:29;;;;;;;;;;;16.80;99.90;;;;;;5065557;28;20424;-61
2022/09/13 04:20:56;;;;;;;;;;;16.80;99.90;;;;;;5034785;28;19927;-60
2022/09/13 04:23:22;;;;;;;;;;;16.80;99.90;;;;;;5035704;28;19967;-61
2022/09/13 04:25:47;;;;;;;;;;;16.80;99.90;;;;;;5054316;28;19968;-61
2022/09/13 04:28:13;;;;;;;;;;;16.90;99.90;;;;;;5053935;28;19927;-61
2022/09/13 04:30:42;;;;;;;;;;;16.90;99.90;;;;;;5037590;28;20255;-60
2022/09/13 04:33:08;;;;;;;;;;;16.90;99.90;;;;;;5054287;28;20358;-61
2022/09/13 04:35:33;;;;;;;;;;;16.90;99.90;;;;;;5053741;28;19960;-61
2022/09/13 04:37:59;;;;;;;;;;;16.90;99.90;;;;;;5053005;28;19931;-61
2022/09/13 04:40:24;;;;;;;;;;;16.90;99.90;;;;;;5036268;28;19928;-61
2022/09/13 04:42:50;;;;;;;;;;;16.80;99.90;;;;;;5054348;28;19924;-60
2022/09/13 04:45:16;;;;;;;;;;;16.80;99.90;;;;;;5053651;28;19927;-60
2022/09/13 04:47:42;;;;;;;;;;;16.80;99.90;;;;;;5048506;28;19920;-61
2022/09/13 04:50:08;;;;;;;;;;;16.80;99.90;;;;;;5074225;28;19921;-61
2022/09/13 04:52:34;;;;;;;;;;;16.80;99.90;;;;;;5073345;28;20362;-60
2022/09/13 04:55:00;;;;;;;;;;;16.80;99.90;;;;;;5073944;28;19921;-61
2022/09/13 04:57:27;;;;;;;;;;;16.70;99.90;;;;;;5053869;28;20358;-60
2022/09/13 04:59:53;;;;;;;;;;;16.70;99.90;;;;;;5053532;28;20373;-61
2022/09/13 05:02:19;;;;;;;;;;;16.70;99.90;;;;;;5036312;28;19986;-61
2022/09/13 05:04:44;;;;;;;;;;;16.70;99.90;;;;;;5060470;28;19982;-61
2022/09/13 05:07:10;;;;;;;;;;;16.60;99.90;;;;;;5060550;28;20321;-60
2022/09/13 05:09:36;;;;;;;;;;;16.60;99.90;;;;;;5054073;28;20424;-60
2022/09/13 05:12:01;;;;;;;;;;;16.60;99.90;;;;;;5053744;28;19920;-61
2022/09/13 05:14:27;;;;;;;;;;;16.60;99.90;;;;;;5067024;28;19931;-61
2022/09/13 05:16:53;;;;;;;;;;;16.60;99.90;;;;;;5073939;28;19921;-60
2022/09/13 05:19:18;;;;;;;;;;;16.60;99.90;;;;;;5050140;28;20466;-61
2022/09/13 05:21:44;;;;;;;;;;;16.70;99.90;;;;;;5053774;28;19928;-61
2022/09/13 05:24:10;;;;;;;;;;;16.80;99.90;;;;;;5073450;28;20422;-61
2022/09/13 05:26:37;;;;;;;;;;;16.80;99.90;;;;;;5055317;28;20065;-60
2022/09/13 05:29:03;;;;;;;;;;;16.80;99.90;;;;;;5073366;28;20433;-61
2022/09/13 05:31:30;;;;;;;;;;;16.90;99.90;;;;;;5073144;28;19951;-61
2022/09/13 05:33:58;;;;;;;;;;;16.90;99.90;;;;;;5072445;28;19926;-61
2022/09/13 05:36:25;;;;;;;;;;;16.90;99.90;;;;;;5052553;28;19921;-61
2022/09/13 05:38:51;;;;;;;;;;;16.90;99.90;;;;;;5053540;28;19974;-61
2022/09/13 05:41:17;;;;;;;;;;;16.90;99.90;;;;;;5068809;28;20378;-61
2022/09/13 05:43:42;;;;;;;;;;;17.00;99.90;;;;;;5073438;28;19927;-61
2022/09/13 05:46:16;;;;;;;;;;;17.00;99.90;;;;;;5073618;28;20362;-61
2022/09/13 05:48:42;;;;;;;;;;;17.10;99.90;;;;;;5049236;28;19968;-60
2022/09/13 05:51:09;;;;;;;;;;;17.10;99.90;;;;;;5053141;28;20335;-61
2022/09/13 05:53:38;;;;;;;;;;;17.00;99.90;;;;;;5053288;28;20007;-62
2022/09/13 05:56:04;;;;;;;;;;;17.10;99.90;;;;;;5052197;28;20267;-61
2022/09/13 05:58:30;;;;;;;;;;;17.00;99.90;;;;;;5065879;28;19920;-61
2022/09/13 06:00:56;;;;;;;;;;;17.00;99.90;;;;;;5055190;28;19921;-61
2022/09/13 06:03:22;;;;;;;;;;;17.00;99.90;;;;;;5068420;28;19921;-61
2022/09/13 06:05:48;;;;;;;;;;;17.00;99.90;;;;;;5053058;28;19921;-61
2022/09/13 06:08:14;;;;;;;;;;;17.00;99.90;;;;;;5053181;28;19921;-61
2022/09/13 06:10:39;;;;;;;;;;;17.00;99.90;;;;;;5052104;28;19932;-61
2022/09/13 06:13:05;;;;;;;;;;;17.00;99.90;;;;;;5035181;28;19920;-61
2022/09/13 06:15:31;;;;;;;;;;;17.00;99.90;;;;;;5041771;28;19920;-61
2022/09/13 06:17:57;;;;;;;;;;;17.00;99.90;;;;;;5071911;28;19920;-62
2022/09/13 06:20:23;;;;;;;;;;;17.00;99.90;;;;;;5078239;28;19925;-61
2022/09/13 06:22:48;;;;;;;;;;;17.10;99.90;;;;;;5054984;28;19928;-61
2022/09/13 06:25:15;;;;;;;;;;;17.10;99.90;;;;;;5053711;28;19920;-61
2022/09/13 06:27:41;;;;;;;;;;;17.10;99.90;;;;;;5073174;28;19947;-61
2022/09/13 06:30:07;;;;;;;;;;;17.20;99.90;;;;;;5072385;28;19920;-62
2022/09/13 06:32:34;;;;;;;;;;;17.20;99.90;;;;;;5072503;28;19935;-63
2022/09/13 06:35:00;;;;;;;;;;;17.30;99.90;;;;;;5087642;28;20594;-62
2022/09/13 06:37:25;;;;;;;;;;;17.30;99.90;;;;;;5058188;28;20015;-62
2022/09/13 06:39:51;;;;;;;;;;;17.30;99.90;;;;;;5092203;28;20281;-62
2022/09/13 06:42:17;;;;;;;;;;;17.40;99.90;;;;;;5091936;28;19920;-61
2022/09/13 06:44:44;;;;;;;;;;;17.40;99.90;;;;;;5091913;28;20305;-62
2022/09/13 06:47:10;;;;;;;;;;;17.40;99.90;;;;;;5058265;28;19928;-62
2022/09/13 06:49:36;;;;;;;;;;;17.40;99.90;;;;;;5076649;28;19928;-62
2022/09/13 06:52:02;;;;;;;;;;;17.40;99.90;;;;;;5092249;28;19920;-61
2022/09/13 06:54:28;;;;;;;;;;;17.40;99.90;;;;;;5096486;28;19999;-62
2022/09/13 06:56:53;;;;;;;;;;;17.50;99.90;;;;;;5096953;28;19997;-62
2022/09/13 06:59:19;;;;;;;;;;;17.50;99.90;;;;;;5077058;28;19950;-62
2022/09/13 07:01:45;;;;;;;;;;;17.60;99.90;;;;;;5096305;28;20006;-62
2022/09/13 07:04:12;;;;;;;;;;;17.60;99.90;;;;;;5085695;28;19927;-62
2022/09/13 07:06:39;;;;;;;;;;;17.70;99.90;;;;;;5075651;28;19921;-62
2022/09/13 07:09:06;;;;;;;;;;;17.80;99.90;;;;;;5087162;28;19919;-62
2022/09/13 07:11:34;;;;;;;;;;;17.90;99.90;;;;;;5096745;28;19927;-62
2022/09/13 07:14:00;;;;;;;;;;;18.10;99.90;;;;;;5079578;28;19963;-62
2022/09/13 07:16:27;;;;;;;;;;;18.10;99.90;;;;;;5075348;28;19963;-62
2022/09/13 07:18:53;;;;;;;;;;;18.10;99.90;;;;;;5093140;28;19920;-61
2022/09/13 07:21:19;;;;;;;;;;;18.10;99.90;;;;;;5075247;28;20157;-62
2022/09/13 07:23:45;;;;;;;;;;;18.20;99.90;;;;;;5075187;28;19920;-62
2022/09/13 07:26:11;;;;;;;;;;;18.30;99.90;;;;;;5075844;28;19927;-62
2022/09/13 07:28:37;;;;;;;;;;;18.30;99.90;;;;;;5074822;28;19926;-62
2022/09/13 07:31:04;;;;;;;;;;;18.40;99.90;;;;;;5074557;28;20021;-62
2022/09/13 07:33:30;;;;;;;;;;;18.40;99.90;;;;;;5073484;28;19937;-61
2022/09/13 07:35:56;;;;;;;;;;;18.50;99.90;;;;;;5056913;28;19920;-62
2022/09/13 07:38:22;;;;;;;;;;;18.40;99.90;;;;;;5074135;28;20007;-62
2022/09/13 07:40:56;;;;;;;;;;;18.40;99.90;;;;;;5073800;28;20012;-61
2022/09/13 07:43:22;;;;;;;;;;;18.40;99.90;;;;;;5077410;28;19920;-62
2022/09/13 07:45:56;;;;;;;;;;;18.40;99.90;;;;;;5095557;28;20349;-62
2022/09/13 07:48:22;;;;;;;;;;;18.40;99.90;;;;;;5076887;28;19927;-62
2022/09/13 07:51:07;;;;;;;;;;;18.40;99.90;;;;;;5095802;28;19916;-62
2022/09/13 07:53:33;;;;;;;;;;;18.40;99.90;;;;;;5094936;28;19932;-62
2022/09/13 07:56:01;;;;;;;;;;;18.40;99.90;;;;;;5095121;28;19920;-62
2022/09/13 07:58:26;;;;;;;;;;;18.40;99.90;;;;;;5095375;28;20362;-62
2022/09/13 08:00:52;;;;;;;;;;;18.50;99.90;;;;;;5095030;28;19973;-62
2022/09/13 08:03:18;;;;;;;;;;;18.60;99.90;;;;;;5089093;28;19920;-62
2022/09/13 08:05:43;;;;;;;;;;;18.60;99.90;;;;;;5075396;28;19927;-62
2022/09/13 08:08:09;;;;;;;;;;;18.70;99.90;;;;;;5056746;28;20007;-62
2022/09/13 08:10:35;;;;;;;;;;;18.90;99.90;;;;;;5081976;28;20380;-62
2022/09/13 08:13:00;;;;;;;;;;;19.00;99.90;;;;;;5095339;28;20015;-62
2022/09/13 08:15:26;;;;;;;;;;;19.20;99.90;;;;;;5094568;28;19920;-61
2022/09/13 08:17:52;;;;;;;;;;;19.20;99.90;;;;;;5095221;28;19920;-62
2022/09/13 08:20:19;;;;;;;;;;;19.10;99.90;;;;;;5062866;28;19920;-62
2022/09/13 08:22:44;;;;;;;;;;;19.10;99.90;;;;;;5074333;28;19921;-61
2022/09/13 08:25:10;;;;;;;;;;;19.00;99.90;;;;;;5074345;28;19927;-62
2022/09/13 08:27:36;;;;;;;;;;;19.00;99.90;;;;;;5074580;28;19916;-62
2022/09/13 08:30:01;;;;;;;;;;;18.90;99.90;;;;;;5072875;28;19966;-62
2022/09/13 08:32:27;;;;;;;;;;;18.80;99.90;;;;;;5089910;28;20406;-62
2022/09/13 08:34:53;;;;;;;;;;;18.80;99.90;;;;;;5074632;28;20276;-61
2022/09/13 08:37:18;;;;;;;;;;;18.90;99.90;;;;;;5067478;28;20401;-61
2022/09/13 08:39:44;;;;;;;;;;;19.10;99.90;;;;;;5062390;28;20008;-61
2022/09/13 08:42:18;;;;;;;;;;;19.20;99.90;;;;;;5071983;28;19931;-62
2022/09/13 08:44:46;;;;;;;;;;;19.30;99.90;;;;;;5065104;28;19979;-61
2022/09/13 08:47:26;;;;;;;;;;;19.30;99.90;;;;;;5079334;28;19957;-61
2022/09/13 08:49:58;;;;;;;;;;;19.40;99.90;;;;;;5073504;28;19966;-62
2022/09/13 08:52:39;;;;;;;;;;;19.50;99.90;;;;;;5053160;28;19921;-59
2022/09/13 08:55:24;;;;;;;;;;;19.60;99.90;;;;;;5079469;28;20037;-60
2022/09/13 08:58:04;;;;;;;;;;;19.60;99.90;;;;;;5072385;28;19951;-61
2022/09/13 09:00:30;;;;;;;;;;;19.40;99.90;;;;;;5073639;28;19927;-60
2022/09/13 09:03:04;;;;;;;;;;;19.40;99.90;;;;;;5066386;28;20607;-61
2022/09/13 09:05:31;;;;;;;;;;;19.40;99.90;;;;;;5066132;28;20427;-60
2022/09/13 09:08:01;;;;;;;;;;;19.30;99.90;;;;;;5080748;28;19920;-60
2022/09/13 09:10:29;;;;;;;;;;;19.30;99.90;;;;;;5093989;28;19924;-60
2022/09/13 09:12:58;;;;;;;;;;;19.30;99.90;;;;;;5092341;28;20309;-60
2022/09/13 09:15:25;;;;;;;;;;;19.60;99.90;;;;;;5077372;28;20009;-60
2022/09/13 09:17:55;;;;;;;;;;;19.70;99.90;;;;;;5085910;28;19925;-61
2022/09/13 09:20:24;;;;;;;;;;;19.90;99.90;;;;;;5054113;28;19921;-61
2022/09/13 09:22:51;;;;;;;;;;;20.00;99.90;;;;;;5073052;28;19993;-60
2022/09/13 09:25:17;;;;;;;;;;;20.10;99.90;;;;;;5083478;28;19945;-60
2022/09/13 09:27:43;;;;;;;;;;;20.20;99.90;;;;;;5092893;28;19923;-61
2022/09/13 09:30:12;;;;;;;;;;;20.20;99.90;;;;;;5085579;28;19931;-61
2022/09/13 09:32:49;;;;;;;;;;;20.20;99.90;;;;;;5073217;28;19920;-60
2022/09/13 09:35:30;;;;;;;;;;;20.20;99.90;;;;;;5053274;28;19928;-60
2022/09/13 09:38:16;;;;;;;;;;;20.30;99.90;;;;;;5052824;28;19974;-60
2022/09/13 09:40:42;;;;;;;;;;;20.40;99.90;;;;;;5070237;28;19920;-60
2022/09/13 09:43:13;;;;;;;;;;;20.40;99.80;;;;;;5082029;28;19924;-60
2022/09/13 09:45:41;;;;;;;;;;;20.20;99.90;;;;;;5093044;28;20018;-61
2022/09/13 09:48:11;;;;;;;;;;;20.10;99.90;;;;;;5082857;28;19920;-60
2022/09/13 09:50:41;;;;;;;;;;;20.40;99.90;;;;;;5054787;28;20404;-60
2022/09/13 09:53:13;;;;;;;;;;;20.40;99.10;;;;;;5072944;28;19920;-60
2022/09/13 09:55:45;;;;;;;;;;;20.40;98.20;;;;;;5072367;28;19920;-60
2022/09/13 09:58:15;;;;;;;;;;;20.40;99.50;;;;;;5072517;28;20423;-60
2022/09/13 10:00:52;;;;;;;;;;;20.50;98.80;;;;;;5077465;28;19939;-61
2022/09/13 10:03:19;;;;;;;;;;;20.60;99.00;;;;;;5089176;28;19925;-60
2022/09/13 10:05:46;;;;;;;;;;;20.90;99.30;;;;;;5078469;28;19920;-60
2022/09/13 10:08:25;;;;;;;;;;;21.10;99.10;;;;;;5091471;28;19958;-61
2022/09/13 10:10:52;;;;;;;;;;;21.30;99.20;;;;;;5093141;28;19920;-61
2022/09/13 10:13:20;;;;;;;;;;;21.60;98.70;;;;;;5093323;28;20019;-61
2022/09/13 10:15:53;;;;;;;;;;;21.90;97.10;;;;;;5072502;28;19939;-60
2022/09/13 10:18:20;;;;;;;;;;;21.90;95.90;;;;;;5051220;28;19921;-60
2022/09/13 10:21:00;;;;;;;;;;;21.40;96.30;;;;;;5034671;28;19947;-60
2022/09/13 10:23:26;;;;;;;;;;;21.00;98.00;;;;;;5036327;28;20404;-60
2022/09/13 10:25:55;;;;;;;;;;;20.70;99.30;;;;;;5071387;28;20274;-60
2022/09/13 10:28:21;;;;;;;;;;;21.20;99.50;;;;;;5052631;28;19921;-60
2022/09/13 10:30:51;;;;;;;;;;;22.00;98.30;;;;;;5052004;28;20389;-60
2022/09/13 10:33:23;;;;;;;;;;;21.90;96.90;;;;;;5067722;28;20400;-60
2022/09/13 10:35:49;;;;;;;;;;;21.30;96.90;;;;;;5052778;28;19920;-60
2022/09/13 10:38:22;;;;;;;;;;;20.80;98.40;;;;;;5051609;28;19916;-60
2022/09/13 10:40:48;;;;;;;;;;;21.00;98.10;;;;;;5052317;28;19929;-60
2022/09/13 10:43:15;;;;;;;;;;;21.40;96.60;;;;;;5070283;28;19920;-61
2022/09/13 10:45:41;;;;;;;;;;;21.50;97.00;;;;;;5072303;28;20373;-60
2022/09/13 10:48:13;;;;;;;;;;;22.00;97.00;;;;;;5073023;28;19974;-60
2022/09/13 10:50:38;;;;;;;;;;;22.60;94.60;;;;;;5057493;28;19967;-60
2022/09/13 10:53:24;;;;;;;;;;;22.90;93.40;;;;;;5052231;28;19925;-60
2022/09/13 10:55:54;;;;;;;;;;;22.90;92.80;;;;;;5052168;28;19921;-61
2022/09/13 10:58:19;;;;;;;;;;;22.50;92.80;;;;;;5062162;28;19924;-61
2022/09/13 11:00:53;;;;;;;;;;;22.80;93.90;;;;;;5032764;28;19976;-60
2022/09/13 11:03:24;;;;;;;;;;;22.40;90.80;;;;;;5035804;28;20003;-60
2022/09/13 11:05:56;;;;;;;;;;;22.00;91.70;;;;;;5051563;28;19971;-60
2022/09/13 11:08:26;;;;;;;;;;;22.30;90.70;;;;;;5067682;28;19920;-60
2022/09/13 11:10:57;;;;;;;;;;;22.70;91.20;;;;;;5050987;28;20358;-59
2022/09/13 11:13:31;;;;;;;;;;;22.80;90.10;;;;;;5040808;28;20349;-60
2022/09/13 11:16:05;;;;;;;;;;;23.10;89.80;;;;;;5038925;28;19971;-60
2022/09/13 11:18:33;;;;;;;;;;;23.40;88.40;;;;;;5047911;28;19972;-60
2022/09/13 11:21:00;;;;;;;;;;;23.70;87.90;;;;;;5054374;28;19929;-60
2022/09/13 11:23:47;;;;;;;;;;;24.10;88.30;;;;;;5055947;28;19971;-61
2022/09/13 11:26:22;;;;;;;;;;;24.50;87.30;;;;;;5069833;28;19924;-60
2022/09/13 11:28:48;;;;;;;;;;;24.80;84.80;;;;;;5061873;28;20344;-60
2022/09/13 11:31:20;;;;;;;;;;;24.50;85.40;;;;;;5055721;28;19916;-60
2022/09/13 11:33:53;;;;;;;;;;;23.50;90.00;;;;;;5066974;28;19921;-60
2022/09/13 11:36:38;;;;;;;;;;;23.00;89.20;;;;;;5061984;28;20173;-61
2022/09/13 11:39:04;;;;;;;;;;;22.70;91.00;;;;;;5075709;28;19927;-60
2022/09/13 11:41:36;;;;;;;;;;;23.00;89.60;;;;;;5056975;28;19977;-61
2022/09/13 11:44:20;;;;;;;;;;;22.70;90.20;;;;;;5058123;28;20046;-60
2022/09/13 11:46:51;;;;;;;;;;;22.20;91.10;;;;;;5049259;28;19924;-60
2022/09/13 11:49:22;;;;;;;;;;;22.70;90.30;;;;;;5055554;28;19920;-60
2022/09/13 11:51:52;;;;;;;;;;;23.40;88.50;;;;;;5054670;28;19920;-60
2022/09/13 11:54:30;;;;;;;;;;;24.10;89.10;;;;;;5068699;28;19928;-60
2022/09/13 11:56:59;;;;;;;;;;;24.10;86.70;;;;;;5055606;28;19927;-60
2022/09/13 11:59:33;;;;;;;;;;;23.70;85.60;;;;;;5054866;28;20389;-60
2022/09/13 12:02:02;;;;;;;;;;;23.00;87.30;;;;;;5070183;28;19956;-60
2022/09/13 12:04:37;;;;;;;;;;;22.90;89.00;;;;;;5044406;28;20008;-60
2022/09/13 12:07:06;;;;;;;;;;;23.40;89.10;;;;;;5067075;28;19920;-60
2022/09/13 12:09:36;;;;;;;;;;;24.00;88.30;;;;;;5061760;28;19959;-60
2022/09/13 12:12:04;;;;;;;;;;;23.50;87.50;;;;;;5075013;28;20427;-60
2022/09/13 12:14:34;;;;;;;;;;;22.60;91.00;;;;;;5034090;28;20381;-60
2022/09/13 12:17:03;;;;;;;;;;;21.90;91.90;;;;;;5054866;28;19927;-60
2022/09/13 12:19:35;;;;;;;;;;;21.40;93.20;;;;;;5067061;28;20007;-61
2022/09/13 12:22:01;;;;;;;;;;;21.90;92.90;;;;;;5073782;28;19920;-60
2022/09/13 12:24:32;;;;;;;;;;;22.60;90.40;;;;;;5074573;28;19970;-60
2022/09/13 12:27:09;;;;;;;;;;;22.90;91.10;;;;;;5073937;28;19926;-60
2022/09/13 12:29:38;;;;;;;;;;;23.50;90.00;;;;;;5053448;28;19920;-61
2022/09/13 12:32:05;;;;;;;;;;;23.80;88.40;;;;;;5073248;28;19920;-60
2022/09/13 12:34:49;;;;;;;;;;;23.30;89.50;;;;;;5073504;28;20381;-60
2022/09/13 12:37:20;;;;;;;;;;;22.60;90.80;;;;;;5071878;28;19943;-60
2022/09/13 12:39:52;;;;;;;;;;;22.90;90.20;;;;;;5071901;28;19921;-61
2022/09/13 12:42:39;;;;;;;;;;;22.70;90.70;;;;;;5056270;28;20397;-60
2022/09/13 12:45:05;;;;;;;;;;;22.30;90.70;;;;;;5073833;28;19928;-60
2022/09/13 12:47:40;;;;;;;;;;;21.60;91.80;;;;;;5074562;28;19920;-60
2022/09/13 12:50:11;;;;;;;;;;;21.30;92.30;;;;;;5055134;28;19954;-60
2022/09/13 12:52:48;;;;;;;;;;;21.10;92.40;;;;;;5056640;28;19928;-60
2022/09/13 12:55:34;;;;;;;;;;;21.00;92.50;;;;;;5073781;28;19920;-60
2022/09/13 12:58:17;;;;;;;;;;;21.00;92.80;;;;;;5073241;28;19947;-61
2022/09/13 13:00:57;;;;;;;;;;;21.90;91.10;;;;;;5074279;28;20560;-60
2022/09/13 13:03:27;;;;;;;;;;;22.50;91.20;;;;;;5073686;28;19920;-60
2022/09/13 13:06:04;;;;;;;;;;;22.90;89.60;;;;;;5072902;28;19975;-60
2022/09/13 13:08:30;;;;;;;;;;;23.50;89.20;;;;;;5073950;28;19971;-60
2022/09/13 13:11:04;;;;;;;;;;;24.00;87.90;;;;;;5072768;28;20363;-60
2022/09/13 13:13:34;;;;;;;;;;;24.00;85.50;;;;;;5073751;28;19924;-60
2022/09/13 13:16:03;;;;;;;;;;;23.90;85.20;;;;;;5073894;28;19920;-60
2022/09/13 13:18:30;;;;;;;;;;;23.60;87.60;;;;;;5056287;28;19921;-60
2022/09/13 13:20:56;;;;;;;;;;;23.30;86.50;;;;;;5052526;28;20358;-60
2022/09/13 13:23:24;;;;;;;;;;;23.00;85.90;;;;;;5053628;28;19925;-60
2022/09/13 13:25:55;;;;;;;;;;;22.90;88.50;;;;;;5051064;28;20398;-60
2022/09/13 13:28:42;;;;;;;;;;;22.60;89.40;;;;;;5053854;28;20358;-60
2022/09/13 13:31:09;;;;;;;;;;;22.60;89.10;;;;;;5053396;28;19928;-60
2022/09/13 13:33:46;;;;;;;;;;;22.70;88.40;;;;;;5052596;28;20359;-60
2022/09/13 13:36:23;;;;;;;;;;;22.80;89.50;;;;;;5056969;28;19924;-60
2022/09/13 13:38:49;;;;;;;;;;;23.00;89.70;;;;;;5026353;28;20359;-61
2022/09/13 13:41:34;;;;;;;;;;;23.10;87.80;;;;;;5060731;28;20251;-60
2022/09/13 13:44:01;;;;;;;;;;;23.10;84.90;;;;;;5073149;28;19928;-62
2022/09/13 13:46:28;;;;;;;;;;;23.00;85.90;;;;;;5072109;28;19927;-62
2022/09/13 13:48:54;;;;;;;;;;;22.70;88.40;;;;;;5072864;28;20373;-62
2022/09/13 13:51:21;;;;;;;;;;;22.70;88.50;;;;;;5073267;28;19921;-62
2022/09/13 13:53:52;;;;;;;;;;;22.70;86.70;;;;;;5072410;28;20006;-62
2022/09/13 13:56:22;;;;;;;;;;;22.60;87.50;;;;;;5041825;28;20443;-62
2022/09/13 13:58:50;;;;;;;;;;;22.80;88.00;;;;;;5053268;28;20274;-62
2022/09/13 14:01:19;;;;;;;;;;;23.00;87.10;;;;;;5052503;28;20365;-63
2022/09/13 14:03:53;;;;;;;;;;;22.90;86.50;;;;;;5034600;28;19920;-62
2022/09/13 14:06:28;;;;;;;;;;;22.90;86.00;;;;;;5072025;28;20346;-63
2022/09/13 14:09:03;;;;;;;;;;;22.80;86.70;;;;;;5072557;28;19963;-62
2022/09/13 14:11:30;;;;;;;;;;;22.90;85.70;;;;;;5054540;28;19916;-62
2022/09/13 14:13:55;;;;;;;;;;;23.30;83.30;;;;;;5042620;28;19928;-63
2022/09/13 14:16:22;;;;;;;;;;;23.70;81.30;;;;;;5052267;28;19924;-62
2022/09/13 14:18:54;;;;;;;;;;;24.10;81.30;;;;;;5052446;28;19928;-63
2022/09/13 14:21:22;;;;;;;;;;;24.20;79.80;;;;;;5052043;28;20290;-63
2022/09/13 14:23:47;;;;;;;;;;;24.10;79.00;;;;;;5064267;28;19928;-63
2022/09/13 14:26:13;;;;;;;;;;;24.10;80.10;;;;;;5033185;28;19955;-62
2022/09/13 14:28:39;;;;;;;;;;;24.50;78.30;;;;;;5052341;28;19932;-62